Columbia Regional Airport Columbia US
ICAO: KCOU
IATA: COU
Category: Medium
Scheduled Services: Yes

Elevation: 889 ft
TransAlt. 18000 ft.

Airport Communications:
MIZZU APP/DEP:124.375
ATIS:128.45
CTAF:119.3
GND:121.6
RDO:122.2
TWR:119.3
UNICOM:122.95

KCOU Zoom In..

Runways:

(A) RW 02 length 6501 ft width 150 ft
ILS 110.70 / hdg 18

(B) RW 13 length 4401 ft width 75 ft
---- / hdg 132

(C) RW 20 length 6501 ft width 150 ft
---- / hdg 198

(D) RW 31 length 4401 ft width 75 ft
---- / hdg 312

Location; KCOU
Day. 16 / Time. 17.54 Zulu
* Altimeter: 30.01
* Temperature: 34° c. 93.2°f.
* Wind from: 350° Speed 04 kn.
Dewpoint: 18° c.
Visibility: 10 Statute Miles.
Clouds: Clear (automated report).

KCOU 161754Z 35004KT 10SM CLR 34/18 A3001 RMK AO2 SLP152 T03440183 10344 20239 58003


Wind From 350°
Speed 04 kn.

 
 
jpsmedia.com for Web Design worldairports.se 2018   terms of use